Time;durP1;ratioP1;P1;durP2;ratioP2;P2;SDS_P1;SDS_P2;PMS_P1;PMS_P2;Temp;Humidity;BMP_temperature;BMP_pressure;BME280_temperature;BME280_humidity;BME280_pressure;Samples;Min_cycle;Max_cycle;Signal;HPM_P1;HPM_P2
2021/12/06 00:00:30;;;;;;;4.15;3.75;;;1.70;99.90;;;;;;4964872;28;20043;-88
2021/12/06 00:02:59;;;;;;;4.57;2.87;;;1.70;99.90;;;;;;4968710;28;20061;-89
2021/12/06 00:05:26;;;;;;;2.92;2.03;;;1.70;99.90;;;;;;4964878;28;20109;-88
2021/12/06 00:07:52;;;;;;;2.95;2.75;;;1.80;99.90;;;;;;4982123;28;20047;-88
2021/12/06 00:10:18;;;;;;;1.33;1.23;;;1.70;99.90;;;;;;4963674;28;20047;-89
2021/12/06 00:12:44;;;;;;;4.20;3.38;;;1.70;99.90;;;;;;4982790;28;20062;-88
2021/12/06 00:15:11;;;;;;;1.60;1.50;;;1.70;99.90;;;;;;4960989;28;20049;-88
2021/12/06 00:17:36;;;;;;;1.50;1.35;;;1.70;99.90;;;;;;4981722;28;20495;-88
2021/12/06 00:20:06;;;;;;;1.75;1.17;;;1.70;99.90;;;;;;4966467;28;20042;-88
2021/12/06 00:22:32;;;;;;;2.90;2.67;;;1.70;99.90;;;;;;4963210;28;21408;-88
2021/12/06 00:24:58;;;;;;;4.05;2.83;;;1.70;99.90;;;;;;4960805;28;20043;-87
2021/12/06 00:27:24;;;;;;;5.65;2.90;;;1.70;99.90;;;;;;4963665;28;20062;-87
2021/12/06 00:29:50;;;;;;;6.32;2.40;;;1.70;99.90;;;;;;4953643;29;20036;-89
2021/12/06 00:32:16;;;;;;;1.65;1.55;;;1.70;99.90;;;;;;4962513;28;20512;-89
2021/12/06 00:34:42;;;;;;;2.05;1.90;;;1.70;99.90;;;;;;4954633;28;20043;-89
2021/12/06 00:37:23;;;;;;;1.67;1.58;;;1.70;99.90;;;;;;4959724;29;20193;-88
2021/12/06 00:39:55;;;;;;;2.95;2.22;;;1.70;99.90;;;;;;4954099;28;20031;-88
2021/12/06 00:42:23;;;;;;;1.55;1.45;;;1.70;99.90;;;;;;4955070;28;20047;-88
2021/12/06 00:44:48;;;;;;;2.05;1.80;;;1.70;99.90;;;;;;4964016;28;20039;-88
2021/12/06 00:47:14;;;;;;;11.27;1.65;;;1.60;99.90;;;;;;4949878;28;20053;-88
2021/12/06 00:49:44;;;;;;;2.72;2.53;;;1.70;99.90;;;;;;4983411;28;20078;-88
2021/12/06 00:52:09;;;;;;;1.65;1.55;;;2.10;99.90;;;;;;4959556;28;20058;-90
2021/12/06 00:54:35;;;;;;;2.10;1.92;;;1.70;99.90;;;;;;4956798;28;21055;-89
2021/12/06 00:57:04;;;;;;;5.80;3.03;;;1.70;99.90;;;;;;4951573;28;20106;-88
2021/12/06 00:59:30;;;;;;;3.80;3.00;;;1.70;99.90;;;;;;4959278;28;20054;-88
2021/12/06 01:01:57;;;;;;;10.18;2.40;;;1.80;99.90;;;;;;4963131;28;20107;-89
2021/12/06 01:04:23;;;;;;;2.25;1.98;;;1.60;99.90;;;;;;4960375;28;20039;-88
2021/12/06 01:06:48;;;;;;;1.90;1.80;;;1.60;99.90;;;;;;4968185;28;20042;-88
2021/12/06 01:09:14;;;;;;;3.90;3.28;;;1.70;99.90;;;;;;4948161;29;20062;-89
2021/12/06 01:11:39;;;;;;;2.85;1.65;;;1.70;99.90;;;;;;4960928;28;20061;-89
2021/12/06 01:14:05;;;;;;;2.67;1.73;;;1.70;99.90;;;;;;4964538;28;20039;-89
2021/12/06 01:16:31;;;;;;;2.35;2.25;;;1.70;99.90;;;;;;4959119;28;20213;-89
2021/12/06 01:18:57;;;;;;;3.67;1.63;;;1.60;99.90;;;;;;4956741;28;20066;-88
2021/12/06 01:21:38;;;;;;;1.50;1.40;;;1.60;99.90;;;;;;4959206;28;20110;-89
2021/12/06 01:24:05;;;;;;;1.60;1.50;;;1.70;99.90;;;;;;4970259;28;20054;-88
2021/12/06 01:39:52;;;;;;;1.40;1.30;;;1.60;99.90;;;;;;4969635;28;20101;-89
2021/12/06 01:42:18;;;;;;;2.35;2.13;;;1.70;99.90;;;;;;4962936;28;20047;-89
2021/12/06 01:44:47;;;;;;;4.07;3.30;;;1.70;99.90;;;;;;4955363;28;20054;-89
2021/12/06 01:47:27;;;;;;;1.98;1.85;;;1.60;99.90;;;;;;4964429;28;20057;-87
2021/12/06 01:50:06;;;;;;;3.75;2.03;;;1.70;99.90;;;;;;4956632;28;20038;-88
2021/12/06 01:52:35;;;;;;;2.35;1.70;;;1.60;99.90;;;;;;4954329;28;20078;-88
2021/12/06 01:55:05;;;;;;;1.73;1.63;;;1.60;99.90;;;;;;4977909;28;20161;-88
2021/12/06 01:57:31;;;;;;;2.92;1.77;;;1.60;99.90;;;;;;4956603;29;20621;-88
2021/12/06 01:59:57;;;;;;;2.83;2.45;;;1.60;99.90;;;;;;4952940;28;20115;-89
2021/12/06 02:02:25;;;;;;;2.33;2.15;;;1.60;99.90;;;;;;4979144;28;20109;-88
2021/12/06 02:04:51;;;;;;;1.75;1.65;;;1.60;99.90;;;;;;4972428;28;20110;-88
2021/12/06 02:07:19;;;;;;;5.07;2.72;;;1.60;99.90;;;;;;4964322;28;20062;-88
2021/12/06 02:09:47;;;;;;;1.23;1.13;;;1.70;99.90;;;;;;4954734;28;20120;-89
2021/12/06 02:12:13;;;;;;;1.77;1.65;;;1.60;99.90;;;;;;4950552;28;20050;-89
2021/12/06 02:14:52;;;;;;;1.70;1.60;;;1.70;99.90;;;;;;4957449;28;20039;-88
2021/12/06 02:17:23;;;;;;;2.75;2.28;;;1.70;99.90;;;;;;4958773;28;20478;-89
2021/12/06 02:19:59;;;;;;;1.70;1.60;;;1.70;99.90;;;;;;4965237;28;20104;-88
2021/12/06 02:22:28;;;;;;;3.90;2.15;;;1.70;99.90;;;;;;4962315;28;20051;-88
2021/12/06 02:24:55;;;;;;;1.48;1.38;;;1.80;99.90;;;;;;4960900;28;20054;-88
2021/12/06 02:27:23;;;;;;;2.08;1.88;;;1.80;99.90;;;;;;4966916;28;20054;-89
2021/12/06 02:29:51;;;;;;;3.70;3.38;;;1.70;99.90;;;;;;4968046;28;20043;-88
2021/12/06 02:32:18;;;;;;;1.70;1.60;;;1.70;99.90;;;;;;4949253;28;20054;-89
2021/12/06 02:34:47;;;;;;;2.33;2.10;;;1.60;99.90;;;;;;4956525;28;20043;-88
2021/12/06 02:37:16;;;;;;;2.58;2.38;;;1.80;99.90;;;;;;4964343;28;20047;-88
2021/12/06 02:39:42;;;;;;;1.58;1.45;;;1.70;99.90;;;;;;4970904;28;20039;-88
2021/12/06 02:42:11;;;;;;;3.13;2.00;;;1.80;99.90;;;;;;4974393;28;20050;-88
2021/12/06 02:44:38;;;;;;;2.38;2.17;;;1.60;99.90;;;;;;4973037;28;20042;-88
2021/12/06 02:47:05;;;;;;;1.42;1.33;;;1.60;99.90;;;;;;4953249;28;20117;-88
2021/12/06 02:49:31;;;;;;;3.08;2.55;;;1.60;99.90;;;;;;4962388;28;20126;-89
2021/12/06 02:51:58;;;;;;;1.17;1.15;;;1.60;99.90;;;;;;4976924;28;20069;-89
2021/12/06 02:54:25;;;;;;;1.58;1.48;;;1.60;99.90;;;;;;4964625;28;20046;-88
2021/12/06 02:56:56;;;;;;;1.42;1.33;;;1.60;99.90;;;;;;4965146;28;20270;-88
2021/12/06 02:59:26;;;;;;;2.80;2.08;;;1.70;99.90;;;;;;4977399;28;20106;-87
2021/12/06 03:01:55;;;;;;;1.40;1.30;;;1.70;99.90;;;;;;4964429;28;20051;-86
2021/12/06 03:04:22;;;;;;;2.75;2.55;;;1.70;99.90;;;;;;4956595;28;20067;-87
2021/12/06 03:06:48;;;;;;;0.98;0.98;;;1.60;99.90;;;;;;4948384;29;20042;-88
2021/12/06 03:09:18;;;;;;;3.92;3.00;;;1.60;99.90;;;;;;4958674;28;20074;-88
2021/12/06 03:12:00;;;;;;;0.90;0.90;;;1.60;99.90;;;;;;4958526;28;20198;-88
2021/12/06 03:14:29;;;;;;;2.50;1.98;;;1.60;99.90;;;;;;4958766;28;20074;-88
2021/12/06 03:16:57;;;;;;;2.25;2.08;;;1.70;99.90;;;;;;4961095;28;20086;-89
2021/12/06 03:19:23;;;;;;;1.95;1.42;;;1.70;99.90;;;;;;4957489;28;20066;-88
2021/12/06 03:21:50;;;;;;;1.35;1.27;;;1.70;99.90;;;;;;4973128;28;20464;-88
2021/12/06 03:24:16;;;;;;;2.55;2.05;;;1.70;99.90;;;;;;4959435;29;20047;-88
2021/12/06 03:26:43;;;;;;;2.70;2.33;;;1.70;99.90;;;;;;4952878;28;20050;-88
2021/12/06 03:29:09;;;;;;;1.77;1.65;;;1.70;99.90;;;;;;4951897;28;20043;-88
2021/12/06 03:31:35;;;;;;;4.03;3.22;;;1.70;99.90;;;;;;4980339;28;20058;-90
2021/12/06 03:34:03;;;;;;;3.42;2.10;;;1.70;99.90;;;;;;4963377;28;20039;-89
2021/12/06 03:36:31;;;;;;;2.35;2.15;;;1.70;99.90;;;;;;4964314;28;20046;-89
2021/12/06 03:38:57;;;;;;;1.35;1.25;;;1.60;99.90;;;;;;4959599;28;20122;-90
2021/12/06 03:41:25;;;;;;;6.78;2.97;;;1.70;99.90;;;;;;4952167;28;20035;-89
2021/12/06 03:43:52;;;;;;;2.85;2.58;;;1.70;99.90;;;;;;4953650;28;20111;-87
2021/12/06 03:46:20;;;;;;;2.58;2.08;;;1.70;99.90;;;;;;4957154;28;20066;-88
2021/12/06 03:48:46;;;;;;;2.08;1.95;;;1.70;99.90;;;;;;4959852;28;20488;-89
2021/12/06 03:51:12;;;;;;;1.90;1.80;;;1.70;99.90;;;;;;4969756;28;20103;-88
2021/12/06 03:53:39;;;;;;;1.52;1.42;;;1.70;99.90;;;;;;4958081;28;20065;-88
2021/12/06 03:56:05;;;;;;;0.95;0.95;;;1.70;99.90;;;;;;4961699;28;20049;-88
2021/12/06 03:58:32;;;;;;;4.20;2.58;;;1.70;99.90;;;;;;4966192;28;20046;-89
2021/12/06 04:00:58;;;;;;;1.95;1.85;;;1.70;99.90;;;;;;4979815;28;20046;-88
2021/12/06 04:03:26;;;;;;;2.60;2.40;;;1.70;99.90;;;;;;4972363;28;20114;-89
2021/12/06 04:05:52;;;;;;;1.63;1.52;;;1.70;99.90;;;;;;4971070;28;20039;-88
2021/12/06 04:08:18;;;;;;;4.07;3.65;;;1.70;99.90;;;;;;4968844;28;20074;-89
2021/12/06 04:10:44;;;;;;;2.05;1.92;;;1.70;99.90;;;;;;4959065;28;20074;-89
2021/12/06 04:13:10;;;;;;;1.45;1.35;;;1.70;99.90;;;;;;4961278;28;20054;-89
2021/12/06 04:15:39;;;;;;;2.85;1.92;;;1.70;99.90;;;;;;4959561;28;20117;-89
2021/12/06 04:18:05;;;;;;;1.48;1.38;;;1.70;99.90;;;;;;4976931;28;20098;-89
2021/12/06 04:20:30;;;;;;;1.33;1.23;;;1.70;99.90;;;;;;4954439;28;20054;-88
2021/12/06 04:22:57;;;;;;;2.53;2.33;;;1.70;99.90;;;;;;4971675;28;20047;-88
2021/12/06 04:25:23;;;;;;;2.58;1.70;;;1.70;99.90;;;;;;4949684;28;20046;-89
2021/12/06 04:27:59;;;;;;;14.75;2.10;;;1.70;99.90;;;;;;4960298;28;20038;-88
2021/12/06 04:30:25;;;;;;;2.38;1.63;;;1.70;99.90;;;;;;4977191;28;20047;-88
2021/12/06 04:32:54;;;;;;;1.85;1.70;;;1.70;99.90;;;;;;4965011;28;20069;-88
2021/12/06 04:35:21;;;;;;;5.35;3.17;;;1.70;99.90;;;;;;4958880;28;20035;-87
2021/12/06 04:37:46;;;;;;;4.38;3.15;;;1.80;99.90;;;;;;4958599;28;20049;-88
2021/12/06 04:40:13;;;;;;;2.10;1.50;;;1.80;99.90;;;;;;4989027;28;20126;-87
2021/12/06 04:42:39;;;;;;;1.90;1.65;;;1.80;99.90;;;;;;4976942;28;20046;-88
2021/12/06 04:45:06;;;;;;;3.53;2.05;;;1.70;99.90;;;;;;4957810;29;20062;-87
2021/12/06 04:47:32;;;;;;;2.63;2.35;;;1.70;99.90;;;;;;4970896;28;20038;-88
2021/12/06 04:49:58;;;;;;;3.08;2.75;;;1.80;99.90;;;;;;4965384;28;20066;-88
2021/12/06 04:52:23;;;;;;;1.92;1.83;;;1.70;99.90;;;;;;4959377;28;20073;-88
2021/12/06 04:54:56;;;;;;;4.03;2.35;;;1.70;99.90;;;;;;4954777;29;20054;-88
2021/12/06 04:57:28;;;;;;;1.20;1.10;;;1.80;99.90;;;;;;4956448;28;20050;-88
2021/12/06 05:00:03;;;;;;;2.15;1.58;;;1.70;99.90;;;;;;4961669;28;20368;-88
2021/12/06 05:02:37;;;;;;;5.50;3.22;;;1.80;99.90;;;;;;4963667;28;20058;-88
2021/12/06 05:05:17;;;;;;;1.67;1.40;;;1.90;99.90;;;;;;4976091;28;20039;-88
2021/12/06 05:07:50;;;;;;;3.33;2.05;;;1.80;99.90;;;;;;4964584;28;20045;-88
2021/12/06 05:10:16;;;;;;;3.35;2.42;;;1.80;99.90;;;;;;4961726;28;20050;-88
2021/12/06 05:12:44;;;;;;;3.30;2.67;;;1.80;99.90;;;;;;4955240;29;20043;-88
2021/12/06 05:15:11;;;;;;;2.13;1.83;;;1.80;99.90;;;;;;4967730;28;20568;-88
2021/12/06 05:17:37;;;;;;;2.25;1.70;;;1.80;99.90;;;;;;4960986;28;20039;-88
2021/12/06 05:20:05;;;;;;;2.72;2.25;;;1.90;99.90;;;;;;4970525;28;20079;-87
2021/12/06 05:22:31;;;;;;;1.20;1.10;;;1.80;99.90;;;;;;4964587;28;20070;-88
2021/12/06 05:24:58;;;;;;;1.60;1.50;;;1.70;99.90;;;;;;4963615;28;20050;-87
2021/12/06 05:27:28;;;;;;;6.97;2.53;;;1.80;99.90;;;;;;4961681;28;20051;-88
2021/12/06 05:29:58;;;;;;;2.72;2.53;;;1.90;99.90;;;;;;4951982;28;20094;-88
2021/12/06 05:32:26;;;;;;;1.30;1.23;;;1.80;99.90;;;;;;4959600;28;20032;-88
2021/12/06 05:35:01;;;;;;;5.70;4.43;;;1.80;99.90;;;;;;4970252;28;20151;-88
2021/12/06 05:37:26;;;;;;;2.85;2.65;;;1.80;99.90;;;;;;4966389;28;20043;-89
2021/12/06 05:39:53;;;;;;;2.38;1.83;;;1.70;99.90;;;;;;4959680;29;20039;-90
2021/12/06 05:42:19;;;;;;;4.20;2.63;;;1.80;99.90;;;;;;4962646;28;20113;-88
2021/12/06 05:44:44;;;;;;;11.27;3.10;;;1.80;99.90;;;;;;4961185;28;20115;-88
2021/12/06 05:47:10;;;;;;;2.40;2.05;;;1.80;99.90;;;;;;4972151;28;20050;-89
2021/12/06 05:49:36;;;;;;;3.60;1.52;;;1.70;99.90;;;;;;4968558;28;20050;-89
2021/12/06 05:52:04;;;;;;;2.88;2.20;;;1.70;99.90;;;;;;4962730;29;20035;-89
2021/12/06 05:54:29;;;;;;;3.60;2.35;;;1.70;99.90;;;;;;4963266;28;20098;-88
2021/12/06 05:56:55;;;;;;;1.65;1.55;;;1.70;99.90;;;;;;4974772;28;20042;-89
2021/12/06 05:59:21;;;;;;;2.17;1.80;;;1.70;99.90;;;;;;4963257;28;20110;-90
2021/12/06 06:01:50;;;;;;;2.60;2.17;;;1.70;99.90;;;;;;4964925;28;20039;-90
2021/12/06 06:04:16;;;;;;;1.75;1.65;;;1.80;99.90;;;;;;4963431;29;20043;-88
2021/12/06 06:06:42;;;;;;;1.30;1.20;;;1.80;99.90;;;;;;4966357;28;20039;-88
2021/12/06 06:09:08;;;;;;;1.95;1.50;;;1.80;99.90;;;;;;4967913;28;20047;-89
2021/12/06 06:11:35;;;;;;;2.63;2.10;;;1.80;99.90;;;;;;4958332;29;20105;-89
2021/12/06 06:14:02;;;;;;;1.65;1.55;;;1.80;99.90;;;;;;4977069;28;20047;-87
2021/12/06 06:16:32;;;;;;;2.17;1.98;;;1.80;99.90;;;;;;4969688;28;20647;-88
2021/12/06 06:18:58;;;;;;;3.35;2.33;;;1.80;99.90;;;;;;4958311;28;20039;-89
2021/12/06 06:21:24;;;;;;;2.10;1.92;;;1.70;99.90;;;;;;4974373;28;20063;-90
2021/12/06 06:23:50;;;;;;;2.95;2.70;;;2.00;99.90;;;;;;4985200;28;20047;-89
2021/12/06 06:26:16;;;;;;;5.95;1.63;;;1.80;99.90;;;;;;4964076;28;20058;-88
2021/12/06 06:28:41;;;;;;;3.25;2.47;;;1.90;99.90;;;;;;4971339;28;20062;-88
2021/12/06 06:31:07;;;;;;;1.80;1.70;;;1.70;99.90;;;;;;4963785;28;20102;-88
2021/12/06 06:33:33;;;;;;;1.70;1.60;;;1.90;99.90;;;;;;4962121;28;20039;-87
2021/12/06 06:35:58;;;;;;;3.35;1.95;;;1.70;99.90;;;;;;4962342;28;20090;-88
2021/12/06 06:38:24;;;;;;;2.35;1.90;;;1.80;99.90;;;;;;4969637;28;20049;-89
2021/12/06 06:40:50;;;;;;;2.33;2.08;;;1.70;99.90;;;;;;4956614;28;20134;-87
2021/12/06 06:43:18;;;;;;;2.60;2.33;;;1.70;99.90;;;;;;4962542;28;20035;-89
2021/12/06 06:45:44;;;;;;;2.13;1.95;;;1.70;99.90;;;;;;4963159;28;20141;-88
2021/12/06 06:48:10;;;;;;;2.97;2.40;;;1.70;99.90;;;;;;4961920;28;20384;-87
2021/12/06 06:50:36;;;;;;;3.30;2.65;;;1.70;99.90;;;;;;4977234;28;20039;-88
2021/12/06 06:53:02;;;;;;;3.10;1.52;;;1.80;99.90;;;;;;4953411;28;20046;-88
2021/12/06 06:55:27;;;;;;;4.47;2.25;;;1.80;99.90;;;;;;4966916;28;20130;-87
2021/12/06 06:57:53;;;;;;;2.35;2.08;;;1.70;99.90;;;;;;4964974;28;20065;-87
2021/12/06 07:00:23;;;;;;;1.75;1.50;;;1.70;99.90;;;;;;4967841;28;20066;-88
2021/12/06 07:02:49;;;;;;;4.18;3.15;;;1.70;99.90;;;;;;4953147;28;20045;-88
2021/12/06 07:05:15;;;;;;;0.95;0.95;;;1.70;99.90;;;;;;4963480;28;20051;-89
2021/12/06 07:07:42;;;;;;;1.08;1.05;;;1.70;99.90;;;;;;4964615;28;20078;-88
2021/12/06 07:10:08;;;;;;;1.80;1.70;;;1.70;99.90;;;;;;4973425;28;20046;-88
2021/12/06 07:12:42;;;;;;;2.15;2.05;;;1.70;99.90;;;;;;4957732;28;20046;-87
2021/12/06 07:15:10;;;;;;;8.23;2.00;;;1.70;99.90;;;;;;4963056;28;20050;-86
2021/12/06 07:17:38;;;;;;;4.55;2.88;;;1.70;99.90;;;;;;4963657;28;20519;-86
2021/12/06 07:20:04;;;;;;;2.13;1.98;;;2.30;99.90;;;;;;4962554;28;20113;-86
2021/12/06 07:22:30;;;;;;;2.80;2.42;;;1.70;99.90;;;;;;4960573;28;20042;-86
2021/12/06 07:24:55;;;;;;;5.50;3.17;;;1.60;99.90;;;;;;4963910;28;20066;-87
2021/12/06 07:27:21;;;;;;;2.35;2.10;;;1.60;99.90;;;;;;4948048;29;20051;-87
2021/12/06 07:29:46;;;;;;;2.70;1.90;;;1.60;99.90;;;;;;4953659;29;20066;-87
2021/12/06 07:32:12;;;;;;;8.20;3.58;;;1.70;99.90;;;;;;4966148;28;20054;-87
2021/12/06 07:34:37;;;;;;;5.65;3.83;;;1.80;99.90;;;;;;4955172;28;20202;-87
2021/12/06 07:37:04;;;;;;;1.30;1.20;;;1.70;99.90;;;;;;4947304;28;20051;-88
2021/12/06 07:39:31;;;;;;;1.55;1.45;;;1.70;99.90;;;;;;4963864;28;20448;-87
2021/12/06 07:41:57;;;;;;;1.52;1.42;;;1.70;99.90;;;;;;4968375;28;20035;-87
2021/12/06 07:44:23;;;;;;;1.75;1.58;;;1.70;99.90;;;;;;4954135;29;20035;-87
2021/12/06 07:46:50;;;;;;;1.33;1.25;;;1.70;99.90;;;;;;4953106;28;20070;-87
2021/12/06 07:49:16;;;;;;;1.15;1.15;;;1.70;99.90;;;;;;4959058;28;20081;-87
2021/12/06 07:51:41;;;;;;;0.98;0.98;;;1.80;99.90;;;;;;4954869;28;20047;-86
2021/12/06 07:54:07;;;;;;;1.58;1.48;;;1.80;99.90;;;;;;4956223;28;20468;-87
2021/12/06 07:56:34;;;;;;;1.63;1.52;;;1.80;99.90;;;;;;4956183;28;20046;-87
2021/12/06 07:59:00;;;;;;;2.05;1.85;;;1.80;99.90;;;;;;4951063;28;20051;-87
2021/12/06 08:01:26;;;;;;;1.85;1.75;;;1.80;99.90;;;;;;4956866;29;20066;-87
2021/12/06 08:03:51;;;;;;;3.22;2.17;;;1.90;99.90;;;;;;4961729;28;20200;-86
2021/12/06 08:06:17;;;;;;;1.85;1.67;;;1.80;99.90;;;;;;4963098;28;20047;-86
2021/12/06 08:08:44;;;;;;;3.33;2.45;;;1.80;99.90;;;;;;4962543;28;20111;-86
2021/12/06 08:11:14;;;;;;;5.85;2.88;;;1.80;99.90;;;;;;4974440;28;20050;-87
2021/12/06 08:13:45;;;;;;;1.25;1.17;;;1.80;99.90;;;;;;4951389;28;20035;-87
2021/12/06 08:16:14;;;;;;;1.75;1.65;;;1.90;99.90;;;;;;4956483;28;20119;-86
2021/12/06 08:18:40;;;;;;;2.38;2.17;;;1.90;99.90;;;;;;4949533;29;20396;-86
2021/12/06 08:21:06;;;;;;;1.30;1.20;;;1.90;99.90;;;;;;4976765;28;20042;-87
2021/12/06 08:23:32;;;;;;;1.92;1.77;;;1.90;99.90;;;;;;4964877;28;20118;-87
2021/12/06 08:25:58;;;;;;;1.17;1.15;;;1.90;99.90;;;;;;4954224;28;20037;-87
2021/12/06 08:28:25;;;;;;;1.30;1.20;;;1.90;99.90;;;;;;4959094;28;20102;-86
2021/12/06 08:30:52;;;;;;;4.03;1.83;;;1.90;99.90;;;;;;4967107;28;20202;-87
2021/12/06 08:33:19;;;;;;;3.33;3.03;;;1.90;99.90;;;;;;4963381;28;20039;-87
2021/12/06 08:35:48;;;;;;;7.28;2.10;;;1.90;99.90;;;;;;4972547;28;20069;-86
2021/12/06 08:38:14;;;;;;;2.35;2.15;;;2.00;99.90;;;;;;4963902;28;20043;-87
2021/12/06 08:40:42;;;;;;;1.50;1.40;;;1.90;99.90;;;;;;4957749;29;20045;-86
2021/12/06 08:43:09;;;;;;;2.22;2.03;;;2.00;99.90;;;;;;4967713;28;20047;-86
2021/12/06 08:45:35;;;;;;;4.47;2.92;;;2.00;99.90;;;;;;4961286;28;20042;-87
2021/12/06 08:48:01;;;;;;;3.63;2.45;;;2.00;99.90;;;;;;4955151;28;20144;-87
2021/12/06 08:50:30;;;;;;;1.55;1.45;;;2.00;99.90;;;;;;4956040;29;20627;-87
2021/12/06 08:52:55;;;;;;;1.25;1.15;;;2.00;99.90;;;;;;4970383;28;20054;-87
2021/12/06 08:55:23;;;;;;;2.42;1.95;;;2.10;99.90;;;;;;4980028;28;20047;-87
2021/12/06 08:57:50;;;;;;;4.30;3.65;;;2.10;99.90;;;;;;4976355;28;20093;-86
2021/12/06 09:00:24;;;;;;;7.15;1.60;;;2.10;99.90;;;;;;4955530;28;20039;-87
2021/12/06 09:02:50;;;;;;;1.10;1.10;;;2.10;99.90;;;;;;4954547;28;20046;-88
2021/12/06 09:05:16;;;;;;;5.15;2.17;;;2.20;99.90;;;;;;4956362;28;20038;-88
2021/12/06 09:07:41;;;;;;;2.50;2.30;;;2.20;99.90;;;;;;4951226;28;20054;-88
2021/12/06 09:10:10;;;;;;;2.15;1.60;;;2.30;99.90;;;;;;4956700;28;20055;-87
2021/12/06 09:12:37;;;;;;;1.02;1.02;;;2.30;99.90;;;;;;4967547;28;20047;-87
2021/12/06 09:15:08;;;;;;;2.10;1.92;;;2.40;99.90;;;;;;4959925;28;20043;-87
2021/12/06 09:17:34;;;;;;;0.88;0.88;;;2.40;99.90;;;;;;4955701;28;20055;-87
2021/12/06 09:20:00;;;;;;;1.70;1.60;;;2.50;99.90;;;;;;4954425;28;20113;-87
2021/12/06 09:22:26;;;;;;;2.60;2.17;;;2.50;99.90;;;;;;4975928;28;20074;-87
2021/12/06 09:24:52;;;;;;;2.03;1.83;;;2.50;99.90;;;;;;4969201;28;20039;-87
2021/12/06 09:27:18;;;;;;;3.72;2.40;;;2.60;99.90;;;;;;4968448;28;20047;-87
2021/12/06 09:29:44;;;;;;;1.33;1.23;;;2.60;99.90;;;;;;4968528;28;20453;-87
2021/12/06 09:32:12;;;;;;;2.15;1.65;;;2.60;99.90;;;;;;4975676;28;20126;-87
2021/12/06 09:34:43;;;;;;;1.25;1.15;;;2.70;99.90;;;;;;4963348;28;20133;-87
2021/12/06 09:37:10;;;;;;;1.88;1.40;;;2.60;99.90;;;;;;4977393;28;20042;-86
2021/12/06 09:39:36;;;;;;;1.45;1.30;;;2.70;99.90;;;;;;4971436;28;20036;-86
2021/12/06 09:42:02;;;;;;;0.80;0.80;;;2.70;99.90;;;;;;4962311;28;20085;-86
2021/12/06 09:44:28;;;;;;;3.00;2.30;;;2.70;99.90;;;;;;4953696;28;20054;-87
2021/12/06 09:46:54;;;;;;;0.70;0.70;;;2.70;99.90;;;;;;4957966;28;20048;-86
2021/12/06 09:49:22;;;;;;;1.70;1.60;;;2.70;99.90;;;;;;4965612;28;20154;-85
2021/12/06 09:51:51;;;;;;;1.00;1.00;;;2.70;99.90;;;;;;4957689;28;20127;-87
2021/12/06 09:54:23;;;;;;;12.73;2.53;;;2.70;99.90;;;;;;4954166;28;20099;-88
2021/12/06 09:56:51;;;;;;;1.65;1.33;;;2.70;99.90;;;;;;4965937;28;20098;-87
2021/12/06 09:59:19;;;;;;;2.95;2.65;;;2.70;99.90;;;;;;4958340;28;20047;-87
2021/12/06 10:01:51;;;;;;;3.03;1.95;;;2.60;99.90;;;;;;4951260;28;20050;-87
2021/12/06 10:04:19;;;;;;;2.05;1.85;;;2.60;99.90;;;;;;4955197;28;20139;-86
2021/12/06 10:06:47;;;;;;;1.23;1.15;;;2.60;99.90;;;;;;4974735;28;20092;-87
2021/12/06 10:09:15;;;;;;;1.60;1.50;;;2.60;99.90;;;;;;4958829;28;20066;-87
2021/12/06 10:11:41;;;;;;;2.17;1.60;;;2.70;99.90;;;;;;4961135;28;20058;-86
2021/12/06 10:14:07;;;;;;;1.27;1.17;;;2.60;99.90;;;;;;4957333;28;20074;-86
2021/12/06 10:16:33;;;;;;;1.00;1.00;;;2.70;99.90;;;;;;4962975;28;20077;-88
2021/12/06 10:18:59;;;;;;;3.33;1.52;;;2.70;99.90;;;;;;4963362;28;20034;-89
2021/12/06 10:21:27;;;;;;;1.98;1.77;;;2.70;99.90;;;;;;4953363;28;20601;-88
2021/12/06 10:23:56;;;;;;;3.67;2.10;;;2.70;99.90;;;;;;4958562;28;20039;-88
2021/12/06 10:26:27;;;;;;;1.15;1.10;;;2.70;99.90;;;;;;4968449;28;20043;-88
2021/12/06 10:28:59;;;;;;;1.10;1.10;;;2.70;99.90;;;;;;4952742;28;20047;-87
2021/12/06 10:31:27;;;;;;;1.13;1.13;;;2.70;99.90;;;;;;4960996;28;20038;-89
2021/12/06 10:33:54;;;;;;;1.67;1.48;;;2.70;99.90;;;;;;4964494;28;20039;-88
2021/12/06 10:36:20;;;;;;;2.55;1.30;;;2.70;99.90;;;;;;4952340;28;20043;-88
2021/12/06 10:38:53;;;;;;;1.42;1.33;;;2.70;99.90;;;;;;4959090;29;20055;-87
2021/12/06 10:41:22;;;;;;;1.75;1.52;;;2.70;99.90;;;;;;4970689;28;20105;-87
2021/12/06 10:43:58;;;;;;;0.93;0.93;;;2.70;99.90;;;;;;4968682;28;20094;-87
2021/12/06 10:46:25;;;;;;;1.67;1.52;;;2.70;99.90;;;;;;4962114;28;20039;-87
2021/12/06 10:48:54;;;;;;;0.80;0.80;;;2.70;99.90;;;;;;4982513;28;20057;-86
2021/12/06 10:51:23;;;;;;;1.40;1.35;;;2.70;99.90;;;;;;4963280;28;20177;-86
2021/12/06 10:54:06;;;;;;;1.77;1.65;;;2.80;99.90;;;;;;4955383;28;20054;-86
2021/12/06 10:56:45;;;;;;;1.38;1.27;;;2.80;99.90;;;;;;4958314;29;20551;-87
2021/12/06 10:59:19;;;;;;;0.95;0.95;;;2.80;99.90;;;;;;4976081;28;20062;-86
2021/12/06 11:01:46;;;;;;;4.25;2.58;;;2.90;99.90;;;;;;4973058;28;20051;-87
2021/12/06 11:04:16;;;;;;;0.88;0.88;;;2.90;99.90;;;;;;4961859;29;20217;-86
2021/12/06 11:06:45;;;;;;;2.35;1.90;;;2.80;99.90;;;;;;4975447;28;20078;-87
2021/12/06 11:09:19;;;;;;;4.57;1.25;;;2.80;99.90;;;;;;4968913;28;20115;-87
2021/12/06 11:11:49;;;;;;;1.48;1.38;;;2.80;99.90;;;;;;4962043;28;20086;-87
2021/12/06 11:14:24;;;;;;;1.65;1.55;;;2.80;99.90;;;;;;4964134;28;20145;-87
2021/12/06 11:16:53;;;;;;;3.20;2.92;;;2.80;99.90;;;;;;4974764;28;20535;-87
2021/12/06 11:19:21;;;;;;;1.42;1.33;;;2.80;99.90;;;;;;4956432;28;20062;-86
2021/12/06 11:21:50;;;;;;;2.80;2.58;;;2.80;99.90;;;;;;4961510;28;20102;-85
2021/12/06 11:24:23;;;;;;;1.73;1.45;;;2.80;99.90;;;;;;4966617;28;20039;-86
2021/12/06 11:26:52;;;;;;;1.23;1.13;;;2.80;99.90;;;;;;4968718;28;20051;-86
2021/12/06 11:29:17;;;;;;;1.00;1.00;;;2.80;99.90;;;;;;4965694;28;20050;-86
2021/12/06 11:32:10;;;;;;;1.25;1.13;;;2.80;99.90;;;;;;4959640;28;20093;-86
2021/12/06 11:34:46;;;;;;;3.60;2.05;;;2.90;99.90;;;;;;4952541;28;20051;-86
2021/12/06 11:37:18;;;;;;;1.00;1.00;;;2.90;99.90;;;;;;4956480;28;20129;-86
2021/12/06 11:39:46;;;;;;;0.93;0.90;;;2.90;99.90;;;;;;4963044;28;20098;-87
2021/12/06 11:42:12;;;;;;;1.15;1.02;;;2.90;99.90;;;;;;4976630;28;20035;-86
2021/12/06 11:44:43;;;;;;;0.88;0.82;;;2.90;99.90;;;;;;4970671;28;20043;-86
2021/12/06 11:47:18;;;;;;;0.80;0.80;;;2.80;99.90;;;;;;4956798;29;20043;-86
2021/12/06 11:49:55;;;;;;;1.67;1.58;;;2.80;99.90;;;;;;4980532;28;20042;-86
2021/12/06 11:52:31;;;;;;;2.13;1.63;;;2.90;99.90;;;;;;4979861;28;20046;-87
2021/12/06 11:55:09;;;;;;;2.05;1.85;;;2.90;99.90;;;;;;4966848;28;20046;-86
2021/12/06 11:57:44;;;;;;;2.65;1.33;;;2.90;99.90;;;;;;4961046;28;20097;-86
2021/12/06 12:00:17;;;;;;;1.23;1.13;;;3.00;99.90;;;;;;4958089;28;20078;-87
2021/12/06 12:02:43;;;;;;;0.80;0.80;;;3.00;99.90;;;;;;4957147;28;20432;-88
2021/12/06 12:05:11;;;;;;;1.55;1.33;;;3.00;99.90;;;;;;4964117;28;20090;-87
2021/12/06 12:08:00;;;;;;;1.35;1.25;;;3.00;99.90;;;;;;4950378;28;20043;-86
2021/12/06 12:10:35;;;;;;;1.52;1.42;;;3.00;99.90;;;;;;4959369;28;20101;-88
2021/12/06 12:13:01;;;;;;;0.93;0.93;;;3.00;99.90;;;;;;4976284;28;20122;-85
2021/12/06 12:15:27;;;;;;;1.40;1.30;;;3.00;99.90;;;;;;4959539;28;20098;-87
2021/12/06 12:17:53;;;;;;;0.95;0.95;;;3.00;99.90;;;;;;4968047;28;20031;-87
2021/12/06 12:20:23;;;;;;;2.25;2.05;;;3.00;99.90;;;;;;4973271;28;20051;-88
2021/12/06 12:22:57;;;;;;;1.00;0.98;;;3.00;99.90;;;;;;4957401;28;20039;-87
2021/12/06 12:25:33;;;;;;;3.42;2.08;;;3.10;99.90;;;;;;4963781;28;20047;-88
2021/12/06 12:28:18;;;;;;;2.10;1.63;;;3.10;99.90;;;;;;4960876;28;20070;-86
2021/12/06 12:30:45;;;;;;;2.47;1.52;;;3.10;99.90;;;;;;4978101;28;20042;-86
2021/12/06 12:33:12;;;;;;;1.38;1.27;;;3.10;99.90;;;;;;4979857;28;20061;-86
2021/12/06 12:35:41;;;;;;;1.30;1.20;;;3.10;99.90;;;;;;4955614;28;20065;-89
2021/12/06 12:38:10;;;;;;;1.60;1.33;;;3.20;99.90;;;;;;4950192;28;20039;-87
2021/12/06 12:40:49;;;;;;;2.92;1.80;;;3.20;99.90;;;;;;4950882;29;20047;-87
2021/12/06 12:43:20;;;;;;;1.30;1.20;;;3.20;99.90;;;;;;4957351;28;20039;-87
2021/12/06 12:45:49;;;;;;;1.45;1.35;;;3.20;99.90;;;;;;4977327;28;20174;-86
2021/12/06 12:48:22;;;;;;;1.40;1.30;;;3.20;99.90;;;;;;4960546;28;20042;-86
2021/12/06 12:51:05;;;;;;;1.52;1.42;;;3.30;99.90;;;;;;4964642;28;20047;-86
2021/12/06 12:53:49;;;;;;;5.63;2.08;;;3.30;99.90;;;;;;4957604;28;20073;-86
2021/12/06 12:56:37;;;;;;;2.30;2.10;;;3.30;99.90;;;;;;4976973;28;20522;-85
2021/12/06 12:59:50;;;;;;;1.33;1.23;;;3.30;99.90;;;;;;4957572;28;20039;-85
2021/12/06 13:02:34;;;;;;;1.17;1.08;;;3.20;99.90;;;;;;4911670;29;20115;-86
2021/12/06 13:05:00;;;;;;;0.93;0.93;;;3.20;99.90;;;;;;4980215;28;20069;-86
2021/12/06 13:07:30;;;;;;;1.33;1.23;;;3.20;99.90;;;;;;4970514;28;20055;-86
2021/12/06 13:09:58;;;;;;;8.57;3.80;;;3.20;99.90;;;;;;4972315;28;20094;-87
2021/12/06 13:12:29;;;;;;;0.90;0.90;;;3.20;99.90;;;;;;4961696;28;20102;-87
2021/12/06 13:15:15;;;;;;;26.45;2.17;;;3.20;99.90;;;;;;4957928;29;20039;-87
2021/12/06 13:17:47;;;;;;;1.58;1.48;;;3.20;99.90;;;;;;4976732;28;20054;-86